createdAt,value
2022-12-13T00:02:05.990Z,7.90
2022-12-13T00:04:35.601Z,6.72
2022-12-13T00:07:05.182Z,7.85
2022-12-13T00:09:34.807Z,6.60
2022-12-13T00:12:04.409Z,7.45
2022-12-13T00:14:34.254Z,7.80
2022-12-13T00:17:03.830Z,7.38
2022-12-13T00:19:33.376Z,8.95
2022-12-13T00:22:03.004Z,7.10
2022-12-13T00:24:32.661Z,8.57
2022-12-13T00:27:02.545Z,6.97
2022-12-13T00:29:32.095Z,8.27
2022-12-13T00:32:01.865Z,8.95
2022-12-13T00:34:32.155Z,7.60
2022-12-13T00:37:01.819Z,9.10
2022-12-13T00:39:31.493Z,9.55
2022-12-13T00:42:01.048Z,8.00
2022-12-13T00:44:30.839Z,7.43
2022-12-13T00:47:00.450Z,8.38
2022-12-13T00:49:30.085Z,7.95
2022-12-13T00:51:59.816Z,9.82
2022-12-13T00:54:29.883Z,8.10
2022-12-13T00:56:59.489Z,7.43
2022-12-13T00:59:29.118Z,9.38
2022-12-13T01:01:59.149Z,8.50
2022-12-13T01:04:28.923Z,7.65
2022-12-13T01:06:58.544Z,8.45
2022-12-13T01:09:31.264Z,7.80
2022-12-13T01:12:06.866Z,8.23
2022-12-13T01:14:41.404Z,8.77
2022-12-13T01:17:11.472Z,8.57
2022-12-13T01:19:41.168Z,8.10
2022-12-13T01:22:12.737Z,8.43
2022-12-13T01:24:42.846Z,9.77
2022-12-13T01:27:12.806Z,9.07
2022-12-13T01:29:42.474Z,8.25
2022-12-13T01:32:12.030Z,7.13
2022-12-13T01:34:41.631Z,9.48
2022-12-13T01:37:11.183Z,8.95
2022-12-13T01:39:40.856Z,9.10
2022-12-13T01:42:16.839Z,9.20
2022-12-13T01:44:58.731Z,7.70
2022-12-13T01:47:37.445Z,9.07
2022-12-13T01:50:12.132Z,9.15
2022-12-13T01:52:44.703Z,9.10
2022-12-13T01:55:17.385Z,9.10
2022-12-13T01:57:52.325Z,8.38
2022-12-13T02:00:22.344Z,8.68
2022-12-13T02:02:52.322Z,8.45
2022-12-13T02:05:36.507Z,9.63
2022-12-13T02:08:07.001Z,8.82
2022-12-13T02:10:36.638Z,7.82
2022-12-13T02:13:07.194Z,7.90
2022-12-13T02:16:01.312Z,7.07
2022-12-13T02:21:38.015Z,8.88
2022-12-13T02:24:26.587Z,9.95
2022-12-13T02:27:01.805Z,9.60
2022-12-13T02:29:43.279Z,8.57
2022-12-13T02:32:15.483Z,8.95
2022-12-13T02:34:49.271Z,8.75
2022-12-13T02:37:31.590Z,9.13
2022-12-13T02:40:13.194Z,7.55
2022-12-13T02:43:03.557Z,9.35
2022-12-13T02:45:43.195Z,8.00
2022-12-13T02:48:15.876Z,7.75
2022-12-13T02:50:46.778Z,8.23
2022-12-13T02:53:18.437Z,8.70
2022-12-13T02:55:48.110Z,7.13
2022-12-13T02:58:25.266Z,8.40
2022-12-13T03:01:27.869Z,8.98
2022-12-13T03:04:14.565Z,8.20
2022-12-13T03:06:46.761Z,8.07
2022-12-13T03:09:28.430Z,9.18
2022-12-13T03:12:22.075Z,7.63
2022-12-13T03:15:19.904Z,7.43
2022-12-13T03:17:56.708Z,7.95
2022-12-13T03:20:29.273Z,8.13
2022-12-13T03:23:00.287Z,7.15
2022-12-13T03:25:33.810Z,10.02
2022-12-13T03:30:35.222Z,7.15
2022-12-13T03:33:04.888Z,7.32
2022-12-13T03:35:44.782Z,7.70
2022-12-13T03:38:21.732Z,7.47
2022-12-13T03:41:06.240Z,7.05
2022-12-13T03:43:36.065Z,6.95
2022-12-13T03:46:05.670Z,8.50
2022-12-13T03:48:35.649Z,6.05
2022-12-13T03:51:05.492Z,7.88
2022-12-13T03:53:35.606Z,7.18
2022-12-13T03:56:07.445Z,6.97
2022-12-13T03:58:38.346Z,6.32
2022-12-13T04:01:13.785Z,6.68
2022-12-13T04:03:45.347Z,7.40
2022-12-13T04:06:21.799Z,6.55
2022-12-13T04:08:53.794Z,7.03
2022-12-13T04:11:42.783Z,6.68
2022-12-13T04:14:22.385Z,6.78
2022-12-13T04:16:53.970Z,6.85
2022-12-13T04:19:24.201Z,7.35
2022-12-13T04:21:55.719Z,6.40
2022-12-13T04:24:30.964Z,6.30
2022-12-13T04:27:02.845Z,6.45
2022-12-13T04:29:34.489Z,6.35
2022-12-13T04:32:26.580Z,5.60
2022-12-13T04:35:00.843Z,6.13
2022-12-13T04:37:32.045Z,6.00
2022-12-13T04:40:01.716Z,6.47
2022-12-13T04:42:31.293Z,6.88
2022-12-13T04:45:00.912Z,8.10
2022-12-13T04:47:30.506Z,6.15
2022-12-13T04:50:00.171Z,6.35
2022-12-13T04:52:30.419Z,7.32
2022-12-13T04:54:59.408Z,7.03
2022-12-13T04:57:29.400Z,5.53
2022-12-13T04:59:58.974Z,6.07
2022-12-13T05:02:29.621Z,6.47
2022-12-13T05:04:59.194Z,6.03
2022-12-13T05:07:29.844Z,5.55
2022-12-13T05:09:59.460Z,5.25
2022-12-13T05:12:29.169Z,6.22
2022-12-13T05:14:59.103Z,4.78
2022-12-13T05:17:28.692Z,5.32
2022-12-13T05:19:58.305Z,6.05
2022-12-13T05:22:28.247Z,5.47
2022-12-13T05:24:57.859Z,6.22
2022-12-13T05:27:27.401Z,6.60
2022-12-13T05:30:03.961Z,5.25
2022-12-13T05:32:43.306Z,5.57
2022-12-13T05:35:23.095Z,4.82
2022-12-13T05:37:54.998Z,5.75
2022-12-13T05:40:30.487Z,5.30
2022-12-13T05:43:01.982Z,6.40
2022-12-13T05:45:33.169Z,5.32
2022-12-13T05:48:03.379Z,6.95
2022-12-13T05:50:33.006Z,4.82
2022-12-13T05:53:02.689Z,5.60
2022-12-13T05:55:32.282Z,5.63
2022-12-13T05:58:02.687Z,6.07
2022-12-13T06:00:33.048Z,5.53
2022-12-13T06:03:03.057Z,4.68
2022-12-13T06:05:33.216Z,6.75
2022-12-13T06:08:03.297Z,5.50
2022-12-13T06:11:09.936Z,5.05
2022-12-13T06:13:45.432Z,4.78
2022-12-13T06:19:03.256Z,4.60
2022-12-13T06:21:44.045Z,4.82
2022-12-13T06:24:21.129Z,5.00
2022-12-13T06:26:52.087Z,5.10
2022-12-13T06:29:25.536Z,4.70
2022-12-13T06:32:01.735Z,5.63
2022-12-13T06:34:35.713Z,4.95
2022-12-13T06:37:08.492Z,5.53
2022-12-13T06:39:38.311Z,5.03
2022-12-13T06:42:09.765Z,5.38
2022-12-13T06:44:39.295Z,4.82
2022-12-13T06:47:11.493Z,5.47
2022-12-13T06:49:45.008Z,4.22
2022-12-13T06:52:15.902Z,6.57
2022-12-13T06:54:46.121Z,4.68
2022-12-13T06:57:16.453Z,5.00
2022-12-13T06:59:46.185Z,5.50
2022-12-13T07:02:24.993Z,5.57
2022-12-13T07:04:56.232Z,4.95
2022-12-13T07:07:27.614Z,5.38
2022-12-13T07:09:57.796Z,4.07
2022-12-13T07:12:27.361Z,4.95
2022-12-13T07:14:57.611Z,4.75
2022-12-13T07:17:32.775Z,4.97
2022-12-13T07:20:09.284Z,5.22
2022-12-13T07:22:46.602Z,5.40
2022-12-13T07:25:28.303Z,4.25
2022-12-13T07:28:01.272Z,5.65
2022-12-13T07:30:42.289Z,4.95
2022-12-13T07:33:12.912Z,4.20
2022-12-13T07:35:55.487Z,5.22
2022-12-13T07:38:25.241Z,4.57
2022-12-13T07:40:58.046Z,4.20
2022-12-13T07:43:28.193Z,4.20
2022-12-13T07:46:01.225Z,4.43
2022-12-13T07:48:32.106Z,4.10
2022-12-13T07:51:07.345Z,4.30
2022-12-13T07:53:37.238Z,4.38
2022-12-13T07:56:09.485Z,3.78
2022-12-13T07:58:39.491Z,3.67
2022-12-13T08:01:11.980Z,4.10
2022-12-13T08:03:41.667Z,3.92
2022-12-13T08:06:13.833Z,3.85
2022-12-13T08:08:43.479Z,3.95
2022-12-13T08:11:16.989Z,3.72
2022-12-13T08:16:27.532Z,3.40
2022-12-13T08:19:03.283Z,3.63
2022-12-13T08:24:30.176Z,4.60
2022-12-13T08:27:04.676Z,3.97
2022-12-13T08:29:36.396Z,3.95
2022-12-13T08:32:14.682Z,3.92
2022-12-13T08:34:44.649Z,4.55
2022-12-13T08:37:14.736Z,3.60
2022-12-13T08:39:44.372Z,3.88
2022-12-13T08:42:19.286Z,3.95
2022-12-13T08:44:51.847Z,3.03
2022-12-13T08:47:26.061Z,4.43
2022-12-13T08:50:02.336Z,3.08
2022-12-13T08:52:39.465Z,3.35
2022-12-13T08:55:12.077Z,3.58
2022-12-13T08:57:42.747Z,3.20
2022-12-13T09:00:17.580Z,3.42
2022-12-13T09:02:47.806Z,3.20
2022-12-13T09:05:33.237Z,3.97
2022-12-13T09:08:23.452Z,4.07
2022-12-13T09:11:10.668Z,3.08
2022-12-13T09:13:50.680Z,3.10
2022-12-13T09:16:25.430Z,3.40
2022-12-13T09:18:56.171Z,3.10
2022-12-13T09:21:31.847Z,3.70
2022-12-13T09:24:02.804Z,3.13
2022-12-13T09:26:37.693Z,3.67
2022-12-13T09:29:11.742Z,3.50
2022-12-13T09:31:41.887Z,3.03
2022-12-13T09:34:12.938Z,3.95
2022-12-13T09:36:43.709Z,3.35
2022-12-13T09:39:13.691Z,3.72
2022-12-13T09:41:45.650Z,3.03
2022-12-13T09:44:31.992Z,3.22
2022-12-13T09:47:13.706Z,3.25
2022-12-13T09:49:51.857Z,3.83
2022-12-13T09:52:25.718Z,2.90
2022-12-13T09:54:58.427Z,3.53
2022-12-13T09:57:34.390Z,2.77
2022-12-13T10:00:12.517Z,3.35
2022-12-13T10:02:53.854Z,3.33
2022-12-13T10:05:40.410Z,3.30
2022-12-13T10:08:24.399Z,2.70
2022-12-13T10:10:54.735Z,3.05
2022-12-13T10:13:50.935Z,3.28
2022-12-13T10:16:36.505Z,2.85
2022-12-13T10:19:55.342Z,2.88
2022-12-13T10:22:25.040Z,2.85
2022-12-13T10:25:01.793Z,3.13
2022-12-13T10:27:35.262Z,2.42
2022-12-13T10:30:29.084Z,3.00
2022-12-13T10:35:31.153Z,3.63
2022-12-13T10:38:31.716Z,3.05
2022-12-13T10:41:02.059Z,2.60
2022-12-13T10:43:31.999Z,2.13
2022-12-13T10:46:05.564Z,2.83
2022-12-13T10:51:11.958Z,2.28
2022-12-13T10:53:48.235Z,3.27
2022-12-13T10:56:23.351Z,3.35
2022-12-13T10:59:17.521Z,2.55
2022-12-13T11:01:47.706Z,2.80
2022-12-13T11:04:33.123Z,2.22
2022-12-13T11:07:23.801Z,2.97
2022-12-13T11:09:53.448Z,3.00
2022-12-13T11:12:26.726Z,2.42
2022-12-13T11:14:56.209Z,2.33
2022-12-13T11:17:29.534Z,3.03
2022-12-13T11:20:03.788Z,2.90
2022-12-13T11:22:36.729Z,2.55
2022-12-13T11:25:21.644Z,2.28
2022-12-13T11:28:26.604Z,2.63
2022-12-13T11:31:01.299Z,2.63
2022-12-13T11:33:48.300Z,2.50
2022-12-13T11:36:34.441Z,2.47
2022-12-13T11:39:03.917Z,2.83
2022-12-13T11:41:50.766Z,2.30
2022-12-13T11:44:32.858Z,2.78
2022-12-13T11:47:03.784Z,2.63
2022-12-13T11:49:47.084Z,2.92
2022-12-13T11:52:31.549Z,2.40
2022-12-13T11:55:27.075Z,2.53
2022-12-13T11:58:03.522Z,2.50
2022-12-13T12:00:41.887Z,2.78
2022-12-13T12:03:23.992Z,2.10
2022-12-13T12:06:03.592Z,2.22
2022-12-13T12:08:44.426Z,2.60
2022-12-13T12:11:20.520Z,2.88
2022-12-13T12:14:15.059Z,2.40
2022-12-13T12:17:02.717Z,2.05
2022-12-13T12:19:40.186Z,2.22
2022-12-13T12:22:51.156Z,2.50
2022-12-13T12:25:30.583Z,2.78
2022-12-13T12:28:33.523Z,2.50
2022-12-13T12:31:03.013Z,2.58
2022-12-13T12:33:47.508Z,2.80
2022-12-13T12:37:03.671Z,2.60
2022-12-13T12:40:07.547Z,2.53
2022-12-13T12:43:14.287Z,2.92
2022-12-13T12:46:13.060Z,2.53
2022-12-13T12:49:06.085Z,2.50
2022-12-13T12:51:57.291Z,2.73
2022-12-13T12:54:51.358Z,3.05
2022-12-13T12:57:28.245Z,2.78
2022-12-13T13:00:20.682Z,2.60
2022-12-13T13:03:18.786Z,2.65
2022-12-13T13:06:14.316Z,3.03
2022-12-13T13:09:06.619Z,2.92
2022-12-13T13:11:44.679Z,2.75
2022-12-13T13:14:32.671Z,2.53
2022-12-13T13:17:22.966Z,2.83
2022-12-13T13:19:55.937Z,2.65
2022-12-13T13:22:44.252Z,2.97
2022-12-13T13:25:43.951Z,2.88
2022-12-13T13:28:24.627Z,3.17
2022-12-13T13:31:05.294Z,2.58
2022-12-13T13:33:40.915Z,2.72
2022-12-13T13:36:11.688Z,2.63
2022-12-13T13:39:01.607Z,2.65
2022-12-13T13:42:02.750Z,3.00
2022-12-13T13:44:54.790Z,3.25
2022-12-13T13:47:24.346Z,3.08
2022-12-13T13:50:15.011Z,2.90
2022-12-13T13:53:13.559Z,2.92
2022-12-13T13:56:16.206Z,3.25
2022-12-13T13:59:22.747Z,2.80
2022-12-13T14:02:48.467Z,2.83
2022-12-13T14:05:31.249Z,2.80
2022-12-13T14:08:20.655Z,3.00
2022-12-13T14:11:27.177Z,3.25
2022-12-13T14:14:24.771Z,3.50
2022-12-13T14:17:35.100Z,3.15
2022-12-13T14:20:30.573Z,3.35
2022-12-13T14:23:38.486Z,3.20
2022-12-13T14:26:39.006Z,3.85
2022-12-13T14:29:17.010Z,2.80
2022-12-13T14:31:49.439Z,3.10
2022-12-13T14:34:30.533Z,2.83
2022-12-13T14:37:05.835Z,2.72
2022-12-13T14:39:36.277Z,2.90
2022-12-13T14:42:50.137Z,3.88
2022-12-13T14:45:36.009Z,2.77
2022-12-13T14:48:29.142Z,3.00
2022-12-13T14:50:59.410Z,3.25
2022-12-13T14:53:42.975Z,2.90
2022-12-13T14:56:27.352Z,3.13
2022-12-13T14:59:04.214Z,2.70
2022-12-13T15:01:42.472Z,3.42
2022-12-13T15:04:39.397Z,2.58
2022-12-13T15:07:15.122Z,2.85
2022-12-13T15:09:47.333Z,2.97
2022-12-13T15:12:24.508Z,3.10
2022-12-13T15:15:06.889Z,3.65
2022-12-13T15:17:39.000Z,3.45
2022-12-13T15:20:35.091Z,3.17
2022-12-13T15:23:29.183Z,3.05
2022-12-13T15:26:28.010Z,3.10
2022-12-13T15:29:09.441Z,3.10
2022-12-13T15:31:41.978Z,3.10
2022-12-13T15:34:36.808Z,3.08
2022-12-13T15:37:29.646Z,3.38
2022-12-13T15:40:15.870Z,2.88
2022-12-13T15:42:48.984Z,2.85
2022-12-13T15:45:36.655Z,3.17
2022-12-13T15:48:07.581Z,3.88
2022-12-13T15:50:47.222Z,3.28
2022-12-13T15:53:30.244Z,3.78
2022-12-13T15:56:02.289Z,3.22
2022-12-13T15:58:38.646Z,3.25
2022-12-13T16:01:08.249Z,3.20
2022-12-13T16:03:48.741Z,3.08
2022-12-13T16:06:24.294Z,3.05
2022-12-13T16:09:00.191Z,3.72
2022-12-13T16:11:34.098Z,3.55
2022-12-13T16:14:33.982Z,3.05
2022-12-13T16:17:26.037Z,3.35
2022-12-13T16:19:57.456Z,2.78
2022-12-13T16:22:27.306Z,3.22
2022-12-13T16:24:58.007Z,3.45
2022-12-13T16:27:27.591Z,3.55
2022-12-13T16:29:57.106Z,3.45
2022-12-13T16:32:26.785Z,3.25
2022-12-13T16:34:56.353Z,3.10
2022-12-13T16:37:28.706Z,3.65
2022-12-13T16:39:58.335Z,3.38
2022-12-13T16:42:28.927Z,3.63
2022-12-13T16:45:32.415Z,3.15
2022-12-13T16:47:50.443Z,3.42
2022-12-13T16:50:22.879Z,3.80
2022-12-13T16:52:52.494Z,3.17
2022-12-13T16:55:22.030Z,2.88
2022-12-13T16:58:01.839Z,3.85
2022-12-13T17:00:32.382Z,2.80
2022-12-13T17:03:02.557Z,3.00
2022-12-13T17:05:32.648Z,3.17
2022-12-13T17:08:02.662Z,3.22
2022-12-13T17:10:32.294Z,2.72
2022-12-13T17:13:01.810Z,3.10
2022-12-13T17:15:31.756Z,2.88
2022-12-13T17:18:01.428Z,2.83
2022-12-13T17:20:31.006Z,2.97
2022-12-13T17:23:00.737Z,3.58
2022-12-13T17:25:30.315Z,3.92
2022-12-13T17:28:00.264Z,3.10
2022-12-13T17:30:34.037Z,2.85
2022-12-13T17:33:04.992Z,2.90
2022-12-13T17:35:34.535Z,2.97
2022-12-13T17:38:04.105Z,3.25
2022-12-13T17:40:33.676Z,3.45
2022-12-13T17:43:03.233Z,3.22
2022-12-13T17:45:32.803Z,3.22
2022-12-13T17:48:02.326Z,2.88
2022-12-13T17:50:32.187Z,3.13
2022-12-13T17:53:01.742Z,3.63
2022-12-13T17:55:35.668Z,3.30
2022-12-13T17:58:05.196Z,2.95
2022-12-13T18:00:34.927Z,3.08
2022-12-13T18:03:04.549Z,3.28
2022-12-13T18:05:35.384Z,2.85
2022-12-13T18:08:04.935Z,3.50
2022-12-13T18:10:34.504Z,3.40
2022-12-13T18:13:04.038Z,2.90
2022-12-13T18:15:36.073Z,3.20
2022-12-13T18:18:12.869Z,2.97
2022-12-13T18:20:42.621Z,3.47
2022-12-13T18:23:12.486Z,3.17
2022-12-13T18:25:42.518Z,3.30
2022-12-13T18:28:12.269Z,3.10
2022-12-13T18:30:41.878Z,3.10
2022-12-13T18:33:13.977Z,3.67
2022-12-13T18:35:43.541Z,3.40
2022-12-13T18:38:13.138Z,3.47
2022-12-13T18:40:42.697Z,3.40
2022-12-13T18:43:12.269Z,3.05
2022-12-13T18:45:41.831Z,3.50
2022-12-13T18:48:11.672Z,3.13
2022-12-13T18:50:47.109Z,3.30
2022-12-13T18:53:18.259Z,3.03
2022-12-13T18:55:47.801Z,3.22
2022-12-13T18:58:17.325Z,3.35
2022-12-13T19:00:47.551Z,2.90
2022-12-13T19:03:17.617Z,2.72
2022-12-13T19:05:47.220Z,2.95
2022-12-13T19:08:16.734Z,2.88
2022-12-13T19:10:50.035Z,3.25
2022-12-13T19:13:19.593Z,2.97
2022-12-13T19:15:49.150Z,3.22
2022-12-13T19:18:18.945Z,3.30
2022-12-13T19:20:50.304Z,3.05
2022-12-13T19:23:20.568Z,3.05
2022-12-13T19:25:50.294Z,3.25
2022-12-13T19:28:20.208Z,3.20
2022-12-13T19:30:50.217Z,3.35
2022-12-13T19:33:19.974Z,2.65
2022-12-13T19:35:49.510Z,3.55
2022-12-13T19:38:19.085Z,3.47
2022-12-13T19:40:48.634Z,3.20
2022-12-13T19:43:18.241Z,3.53
2022-12-13T19:45:48.430Z,2.65
2022-12-13T19:48:18.444Z,3.10
2022-12-13T19:50:48.207Z,3.05
2022-12-13T19:53:18.861Z,3.17
2022-12-13T19:55:48.610Z,3.03
2022-12-13T19:58:18.322Z,3.70
2022-12-13T20:00:48.070Z,3.50
2022-12-13T20:03:17.950Z,3.10
2022-12-13T20:05:58.075Z,3.45
2022-12-13T20:08:27.958Z,3.35
2022-12-13T20:11:03.910Z,3.35
2022-12-13T20:13:34.543Z,3.53
2022-12-13T20:16:05.973Z,3.42
2022-12-13T20:18:36.468Z,3.03
2022-12-13T20:21:13.273Z,3.65
2022-12-13T20:26:35.531Z,3.35
2022-12-13T20:27:23.342Z,3.70
2022-12-13T20:29:07.000Z,3.35
2022-12-13T20:31:39.581Z,2.83
2022-12-13T20:34:11.735Z,3.22
2022-12-13T20:36:41.394Z,3.45
2022-12-13T20:39:14.043Z,3.50
2022-12-13T20:41:44.057Z,3.15
2022-12-13T20:44:15.052Z,3.20
2022-12-13T20:46:44.778Z,3.47
2022-12-13T20:49:14.307Z,3.00
2022-12-13T20:51:44.337Z,3.08
2022-12-13T20:54:13.974Z,3.22
2022-12-13T20:56:43.615Z,3.72
2022-12-13T20:59:14.924Z,3.25
2022-12-13T21:01:48.984Z,3.58
2022-12-13T21:04:19.029Z,3.42
2022-12-13T21:06:48.607Z,3.20
2022-12-13T21:09:18.188Z,3.28
2022-12-13T21:11:50.295Z,2.72
2022-12-13T21:14:22.812Z,3.65
2022-12-13T21:16:55.327Z,3.08
2022-12-13T21:19:39.017Z,3.50
2022-12-13T21:22:09.890Z,2.92
2022-12-13T21:24:39.416Z,3.05
2022-12-13T21:27:09.358Z,2.78
2022-12-13T21:29:38.923Z,3.08
2022-12-13T21:32:08.661Z,2.88
2022-12-13T21:34:38.214Z,2.83
2022-12-13T21:37:07.948Z,3.53
2022-12-13T21:39:37.556Z,3.40
2022-12-13T21:42:07.191Z,2.60
2022-12-13T21:44:37.162Z,2.90
2022-12-13T21:47:13.985Z,2.63
2022-12-13T21:49:48.406Z,3.95
2022-12-13T21:52:18.742Z,3.40
2022-12-13T21:54:48.428Z,2.58
2022-12-13T21:57:35.950Z,2.85
2022-12-13T22:00:06.289Z,2.60
2022-12-13T22:02:35.879Z,2.80
2022-12-13T22:05:05.544Z,3.00
2022-12-13T22:07:35.691Z,2.67
2022-12-13T22:10:05.530Z,3.10
2022-12-13T22:12:38.104Z,2.80
2022-12-13T22:15:10.564Z,3.22
2022-12-13T22:17:40.931Z,2.97
2022-12-13T22:20:16.817Z,3.35
2022-12-13T22:22:46.873Z,3.10
2022-12-13T22:25:16.801Z,3.15
2022-12-13T22:27:46.303Z,3.25
2022-12-13T22:30:15.957Z,3.15
2022-12-13T22:32:45.487Z,2.95
2022-12-13T22:35:16.112Z,2.75
2022-12-13T22:37:45.734Z,3.20
2022-12-13T22:40:18.493Z,3.28
2022-12-13T22:42:48.496Z,3.38
2022-12-13T22:45:18.173Z,3.72
2022-12-13T22:47:47.813Z,3.10
2022-12-13T22:50:18.141Z,3.55
2022-12-13T22:52:47.665Z,2.95
2022-12-13T22:55:18.110Z,2.85
2022-12-13T22:57:48.508Z,3.55
2022-12-13T23:00:18.700Z,3.35
2022-12-13T23:02:48.381Z,3.08
2022-12-13T23:05:18.179Z,2.78
2022-12-13T23:07:48.655Z,3.05
2022-12-13T23:10:36.662Z,3.65
2022-12-13T23:13:06.329Z,3.05
2022-12-13T23:15:42.322Z,3.55
2022-12-13T23:18:14.356Z,3.58
2022-12-13T23:20:43.951Z,2.92
2022-12-13T23:23:18.099Z,3.20
2022-12-13T23:25:48.918Z,3.55
2022-12-13T23:28:18.899Z,3.97
2022-12-13T23:30:48.508Z,3.30
2022-12-13T23:33:18.159Z,3.17
2022-12-13T23:35:48.113Z,3.40
2022-12-13T23:38:18.593Z,3.60
2022-12-13T23:40:48.671Z,3.55
2022-12-13T23:43:20.138Z,4.65
2022-12-13T23:45:50.529Z,4.78
2022-12-13T23:48:26.698Z,4.47
2022-12-13T23:50:59.590Z,4.82
2022-12-13T23:53:33.219Z,4.63
2022-12-13T23:56:12.950Z,5.90
2022-12-13T23:58:50.848Z,5.70
